Time;durP1;ratioP1;P1;durP2;ratioP2;P2;SDS_P1;SDS_P2;PMS_P1;PMS_P2;Temp;Humidity;BMP_temperature;BMP_pressure;BME280_temperature;BME280_humidity;BME280_pressure;Samples;Min_cycle;Max_cycle;Signal;HPM_P1;HPM_P2
2021/12/30 00:02:17;;;;;;;23.70;4.43;;;7.70;99.90;;;;;;4992877;28;20046;-75
2021/12/30 00:04:43;;;;;;;21.83;4.90;;;8.10;99.90;;;;;;4993040;28;20054;-76
2021/12/30 00:07:09;;;;;;;27.85;5.65;;;8.00;99.90;;;;;;4993070;28;20062;-76
2021/12/30 00:09:36;;;;;;;27.63;5.20;;;7.70;99.90;;;;;;4959697;28;20101;-76
2021/12/30 00:12:03;;;;;;;24.17;5.03;;;7.70;99.90;;;;;;4992709;28;20113;-76
2021/12/30 00:14:29;;;;;;;27.70;5.28;;;7.80;99.90;;;;;;4992793;28;20567;-77
2021/12/30 00:16:55;;;;;;;23.58;5.03;;;7.80;99.90;;;;;;4992967;28;20121;-76
2021/12/30 00:19:21;;;;;;;26.83;4.82;;;7.70;99.90;;;;;;4992826;28;20480;-76
2021/12/30 00:21:46;;;;;;;29.67;5.63;;;7.70;99.90;;;;;;4975275;28;20082;-76
2021/12/30 00:24:12;;;;;;;30.65;5.43;;;7.60;99.90;;;;;;4992820;28;20042;-77
2021/12/30 00:26:38;;;;;;;24.83;5.88;;;8.00;99.90;;;;;;4975494;28;20050;-77
2021/12/30 00:29:04;;;;;;;30.98;6.30;;;7.90;99.90;;;;;;4992927;28;20061;-76
2021/12/30 00:31:30;;;;;;;24.83;6.32;;;7.70;99.90;;;;;;4992830;28;20404;-78
2021/12/30 00:33:56;;;;;;;27.27;6.30;;;7.70;99.90;;;;;;4992637;28;20038;-76
2021/12/30 00:36:21;;;;;;;25.15;5.13;;;7.70;99.90;;;;;;4975347;28;20054;-77
2021/12/30 00:38:47;;;;;;;30.17;6.28;;;7.70;99.90;;;;;;4975271;28;20118;-73
2021/12/30 00:41:13;;;;;;;35.50;5.97;;;7.70;99.90;;;;;;4992690;28;20478;-73
2021/12/30 00:43:39;;;;;;;29.52;6.32;;;7.60;99.90;;;;;;4992532;28;20054;-73
2021/12/30 00:46:07;;;;;;;31.10;5.40;;;7.60;99.90;;;;;;4975029;28;20404;-73
2021/12/30 00:48:33;;;;;;;28.48;6.40;;;7.60;99.90;;;;;;4992467;28;20043;-74
2021/12/30 00:50:59;;;;;;;33.33;5.65;;;7.60;99.90;;;;;;4992453;28;20050;-72
2021/12/30 00:53:24;;;;;;;35.58;6.68;;;7.60;99.90;;;;;;4992622;28;20152;-73
2021/12/30 00:55:50;;;;;;;31.73;6.50;;;7.60;99.90;;;;;;4974979;28;20102;-73
2021/12/30 00:58:16;;;;;;;37.08;6.80;;;7.70;99.90;;;;;;4992244;28;20042;-74
2021/12/30 01:00:44;;;;;;;36.58;6.43;;;8.00;99.90;;;;;;4992706;28;20492;-73
2021/12/30 01:03:11;;;;;;;33.95;6.32;;;8.10;99.90;;;;;;4992052;28;20043;-73
2021/12/30 01:05:37;;;;;;;32.90;6.90;;;7.60;99.90;;;;;;4992290;28;20408;-72
2021/12/30 01:08:04;;;;;;;33.30;6.88;;;7.80;99.90;;;;;;4978054;28;20083;-74
2021/12/30 01:10:31;;;;;;;38.08;7.13;;;7.50;99.90;;;;;;4978304;28;20050;-74
2021/12/30 01:13:04;;;;;;;32.08;6.95;;;7.50;99.90;;;;;;4962189;28;20054;-73
2021/12/30 01:15:35;;;;;;;37.20;7.47;;;7.50;99.90;;;;;;4996055;28;20046;-73
2021/12/30 01:21:09;;;;;;;39.20;7.70;;;7.50;99.90;;;;;;4916569;29;20131;-74
2021/12/30 01:23:35;;;;;;;43.13;7.32;;;7.50;99.90;;;;;;4916536;29;20586;-71
2021/12/30 01:26:01;;;;;;;35.58;7.20;;;8.00;99.90;;;;;;4916608;29;20135;-73
2021/12/30 01:28:28;;;;;;;39.03;7.70;;;7.50;99.90;;;;;;4901097;29;20054;-73
2021/12/30 01:30:54;;;;;;;38.20;6.70;;;7.60;99.90;;;;;;4916344;29;20056;-73
2021/12/30 01:33:21;;;;;;;46.33;7.72;;;7.50;99.90;;;;;;4916416;29;20490;-73
2021/12/30 01:35:47;;;;;;;39.83;7.82;;;7.40;99.90;;;;;;4916262;29;20391;-75
2021/12/30 01:38:15;;;;;;;45.78;8.00;;;7.40;99.90;;;;;;4916422;29;20119;-74
2021/12/30 01:40:45;;;;;;;40.90;8.18;;;7.40;99.90;;;;;;4916487;29;20521;-73
2021/12/30 01:43:11;;;;;;;41.10;6.68;;;7.40;99.90;;;;;;4900647;29;20410;-73
2021/12/30 01:45:38;;;;;;;40.50;7.65;;;8.00;99.90;;;;;;4900217;29;20108;-76
2021/12/30 01:48:05;;;;;;;38.53;6.43;;;7.40;99.90;;;;;;4916251;29;20441;-73
2021/12/30 01:50:31;;;;;;;36.08;6.28;;;7.40;99.90;;;;;;4916082;29;20050;-72
2021/12/30 01:52:58;;;;;;;39.10;7.05;;;7.40;99.90;;;;;;4992322;28;20153;-71
2021/12/30 01:55:25;;;;;;;31.85;6.05;;;7.40;99.90;;;;;;4995254;28;20034;-73
2021/12/30 01:57:51;;;;;;;48.53;7.53;;;7.40;99.90;;;;;;4995097;28;20408;-73
2021/12/30 02:00:20;;;;;;;40.10;6.53;;;7.40;99.90;;;;;;4994803;28;20046;-75
2021/12/30 02:02:46;;;;;;;40.55;6.72;;;7.60;99.90;;;;;;4994886;28;20048;-74
2021/12/30 02:05:12;;;;;;;36.70;6.53;;;7.40;99.90;;;;;;4994707;28;20520;-74
2021/12/30 02:07:37;;;;;;;36.03;6.72;;;7.40;99.90;;;;;;4994778;28;20081;-73
2021/12/30 02:10:04;;;;;;;36.58;6.70;;;7.40;99.90;;;;;;4994670;28;20049;-74
2021/12/30 02:12:36;;;;;;;32.88;6.25;;;7.40;99.90;;;;;;4977173;28;20054;-73
2021/12/30 02:15:03;;;;;;;34.42;5.72;;;7.40;99.90;;;;;;4977513;28;20042;-74
2021/12/30 02:17:29;;;;;;;38.95;7.63;;;7.40;99.90;;;;;;4994623;28;20048;-73
2021/12/30 02:19:59;;;;;;;40.88;6.45;;;7.40;99.90;;;;;;4994396;28;20113;-73
2021/12/30 02:22:25;;;;;;;33.15;5.93;;;8.00;99.90;;;;;;4994683;28;20058;-73
2021/12/30 02:24:51;;;;;;;32.90;5.70;;;7.30;99.90;;;;;;4976781;28;20046;-72
2021/12/30 02:27:17;;;;;;;31.08;5.50;;;7.40;99.90;;;;;;4977001;28;20392;-73
2021/12/30 02:29:43;;;;;;;36.20;6.78;;;7.30;99.90;;;;;;4994474;28;20042;-74
2021/12/30 02:32:10;;;;;;;32.53;6.03;;;7.30;99.90;;;;;;4994407;28;20054;-73
2021/12/30 02:34:39;;;;;;;30.52;6.05;;;7.30;99.90;;;;;;4976999;28;20919;-75
2021/12/30 02:37:06;;;;;;;27.50;6.05;;;7.30;99.90;;;;;;4994150;28;20496;-75
2021/12/30 02:39:32;;;;;;;33.00;6.47;;;7.30;99.90;;;;;;4976360;28;20046;-76
2021/12/30 02:41:58;;;;;;;37.20;6.65;;;7.30;99.90;;;;;;4994118;28;20048;-78
2021/12/30 02:44:24;;;;;;;38.20;6.40;;;7.70;99.90;;;;;;4976673;28;20141;-76
2021/12/30 02:46:51;;;;;;;36.10;5.55;;;7.40;99.90;;;;;;4994020;28;20117;-78
2021/12/30 02:49:17;;;;;;;36.90;8.70;;;7.40;99.90;;;;;;4994068;28;20050;-77
2021/12/30 02:51:43;;;;;;;32.60;6.53;;;7.40;99.90;;;;;;4993843;28;20117;-78
2021/12/30 02:54:09;;;;;;;30.67;6.25;;;7.80;99.90;;;;;;4993794;28;20466;-76
2021/12/30 02:56:35;;;;;;;31.38;6.35;;;7.70;99.90;;;;;;4976573;28;20050;-76
2021/12/30 02:59:01;;;;;;;36.97;5.70;;;7.40;99.90;;;;;;4993679;28;20125;-77
2021/12/30 03:01:29;;;;;;;31.95;5.95;;;7.40;99.90;;;;;;4993929;28;20057;-76
2021/12/30 03:03:56;;;;;;;37.92;5.85;;;7.40;99.90;;;;;;4976155;28;20046;-78
2021/12/30 03:06:22;;;;;;;36.70;6.80;;;7.60;99.90;;;;;;4993511;28;20066;-78
2021/12/30 03:08:49;;;;;;;39.70;8.18;;;7.40;99.90;;;;;;4960031;28;20120;-76
2021/12/30 03:11:15;;;;;;;41.78;7.00;;;7.40;99.90;;;;;;4976202;28;20065;-78
2021/12/30 03:13:43;;;;;;;35.67;7.85;;;7.40;99.90;;;;;;4993759;28;20103;-78
2021/12/30 03:16:12;;;;;;;36.55;7.82;;;7.40;99.90;;;;;;4993666;28;20058;-77
2021/12/30 03:18:39;;;;;;;35.58;7.25;;;7.40;99.90;;;;;;4993499;28;20047;-76
2021/12/30 03:21:07;;;;;;;43.35;9.20;;;7.40;99.90;;;;;;4993292;28;20092;-77
2021/12/30 03:23:33;;;;;;;35.70;9.05;;;7.40;99.90;;;;;;4993178;28;20042;-78
2021/12/30 03:25:59;;;;;;;46.92;10.05;;;7.40;99.90;;;;;;4975999;28;20142;-78
2021/12/30 03:28:25;;;;;;;51.13;10.32;;;7.80;99.90;;;;;;4993231;28;20078;-78
2021/12/30 03:30:52;;;;;;;45.83;10.93;;;7.40;99.90;;;;;;4975059;28;20144;-77
2021/12/30 03:33:23;;;;;;;40.30;11.45;;;8.00;99.90;;;;;;4976111;28;20069;-78
2021/12/30 03:35:48;;;;;;;62.35;13.55;;;7.60;99.90;;;;;;4993050;28;20061;-77
2021/12/30 03:38:14;;;;;;;57.20;13.63;;;7.60;99.90;;;;;;4975847;28;20070;-76
2021/12/30 03:40:40;;;;;;;55.40;14.30;;;7.80;99.90;;;;;;4993317;28;20460;-78
2021/12/30 03:43:05;;;;;;;51.60;14.48;;;7.70;99.90;;;;;;4993380;28;20054;-78
2021/12/30 03:45:31;;;;;;;59.10;16.58;;;7.70;99.90;;;;;;4993087;28;20046;-75
2021/12/30 03:47:57;;;;;;;53.20;14.88;;;7.80;99.90;;;;;;4975647;28;20058;-79
2021/12/30 03:50:27;;;;;;;64.43;15.77;;;7.90;99.90;;;;;;4990910;28;20518;-77
2021/12/30 03:53:01;;;;;;;55.88;15.55;;;7.90;99.90;;;;;;4975980;28;20050;-77
2021/12/30 03:55:30;;;;;;;52.70;15.13;;;8.40;99.90;;;;;;4993373;28;20096;-78
2021/12/30 03:57:56;;;;;;;67.25;16.33;;;8.00;99.90;;;;;;4993048;28;20042;-77
2021/12/30 04:00:24;;;;;;;51.25;15.13;;;8.00;99.90;;;;;;4993160;28;20082;-78
2021/12/30 04:02:50;;;;;;;67.43;17.65;;;8.10;99.90;;;;;;4992902;28;20395;-75
2021/12/30 04:05:16;;;;;;;51.08;15.55;;;8.10;99.90;;;;;;4975352;28;20061;-74
2021/12/30 04:07:42;;;;;;;60.17;18.15;;;8.10;99.90;;;;;;4975519;28;20054;-74
2021/12/30 04:10:10;;;;;;;56.40;16.77;;;8.10;99.90;;;;;;4992968;28;20193;-76
2021/12/30 04:12:35;;;;;;;59.20;16.50;;;8.10;99.90;;;;;;4993043;28;20054;-74
2021/12/30 04:15:04;;;;;;;53.65;16.17;;;8.20;99.90;;;;;;4975501;28;20054;-74
2021/12/30 04:17:30;;;;;;;57.33;16.48;;;8.20;99.90;;;;;;4992708;28;20052;-74
2021/12/30 04:19:56;;;;;;;47.60;15.57;;;8.40;99.90;;;;;;4975293;28;20117;-74
2021/12/30 04:22:21;;;;;;;61.40;15.82;;;8.20;99.90;;;;;;4992838;28;20035;-75
2021/12/30 04:24:47;;;;;;;54.08;16.35;;;8.30;99.90;;;;;;4991273;28;20535;-74
2021/12/30 04:27:13;;;;;;;56.17;15.85;;;8.30;99.90;;;;;;4992821;28;20043;-74
2021/12/30 04:29:39;;;;;;;57.50;16.23;;;8.30;99.90;;;;;;4975630;28;20086;-74
2021/12/30 04:32:05;;;;;;;56.38;15.85;;;8.30;99.90;;;;;;4992736;28;20066;-74
2021/12/30 04:34:31;;;;;;;58.40;15.43;;;8.30;99.90;;;;;;4992390;28;20101;-75
2021/12/30 04:36:59;;;;;;;49.97;14.95;;;8.30;99.90;;;;;;4992646;28;20046;-74
2021/12/30 04:39:30;;;;;;;53.35;16.48;;;8.40;99.90;;;;;;4992938;28;20042;-76
2021/12/30 04:42:01;;;;;;;55.88;16.08;;;8.60;99.90;;;;;;4994596;28;20092;-74
2021/12/30 04:44:28;;;;;;;51.53;14.55;;;8.50;99.90;;;;;;4978871;28;20038;-73
2021/12/30 04:46:54;;;;;;;57.50;16.48;;;8.50;99.90;;;;;;4996131;28;20046;-76
2021/12/30 04:49:19;;;;;;;55.97;16.15;;;8.50;99.90;;;;;;4996167;28;20052;-75
2021/12/30 04:51:45;;;;;;;52.05;15.32;;;8.70;99.90;;;;;;4978802;28;20051;-74
2021/12/30 04:54:10;;;;;;;56.25;16.13;;;9.00;99.90;;;;;;4978821;28;20042;-74
2021/12/30 04:56:36;;;;;;;62.95;15.55;;;8.80;99.90;;;;;;4996140;28;20092;-72
2021/12/30 04:59:02;;;;;;;55.67;15.77;;;8.60;99.90;;;;;;4996118;28;20082;-75
2021/12/30 05:01:29;;;;;;;58.15;16.08;;;8.60;99.90;;;;;;4995991;28;20133;-74
2021/12/30 05:03:54;;;;;;;51.08;15.15;;;8.80;99.90;;;;;;4978441;28;20057;-75
2021/12/30 05:06:20;;;;;;;52.92;14.55;;;8.80;99.90;;;;;;4978217;28;20405;-75
2021/12/30 05:08:46;;;;;;;59.47;15.88;;;8.90;99.90;;;;;;4996258;28;20050;-77
2021/12/30 05:11:12;;;;;;;50.47;14.55;;;8.70;99.90;;;;;;4978489;28;20129;-76
2021/12/30 05:13:38;;;;;;;44.13;14.95;;;8.80;99.90;;;;;;4995947;28;20141;-74
2021/12/30 05:16:04;;;;;;;52.58;15.82;;;8.80;99.90;;;;;;4995626;28;20050;-76
2021/12/30 05:18:32;;;;;;;60.13;16.58;;;8.80;99.90;;;;;;4978270;28;20053;-74
2021/12/30 05:21:00;;;;;;;52.88;15.60;;;8.90;99.90;;;;;;4995874;28;20042;-74
2021/12/30 05:23:27;;;;;;;55.78;17.17;;;8.90;99.90;;;;;;4995701;28;20042;-74
2021/12/30 05:25:53;;;;;;;56.50;16.17;;;8.90;99.90;;;;;;4995516;28;20511;-74
2021/12/30 05:28:18;;;;;;;50.47;16.85;;;9.00;99.90;;;;;;4995552;28;20034;-74
2021/12/30 05:30:44;;;;;;;67.32;18.17;;;9.00;99.90;;;;;;4995585;28;20061;-74
2021/12/30 05:33:10;;;;;;;64.50;18.00;;;9.10;99.90;;;;;;4977981;28;20046;-74
2021/12/30 05:35:35;;;;;;;57.33;18.10;;;9.10;99.90;;;;;;4977944;28;20042;-74
2021/12/30 05:38:02;;;;;;;58.42;16.75;;;9.20;99.90;;;;;;4978009;28;20089;-72
2021/12/30 05:40:29;;;;;;;61.55;17.70;;;9.50;99.90;;;;;;4995231;28;20518;-75
2021/12/30 05:42:55;;;;;;;52.53;17.00;;;9.20;99.90;;;;;;4994997;28;20050;-75
2021/12/30 05:45:21;;;;;;;57.63;16.27;;;9.30;99.90;;;;;;4995252;28;20046;-75
2021/12/30 05:47:49;;;;;;;52.95;15.80;;;9.30;99.90;;;;;;4995288;28;20046;-75
2021/12/30 05:50:18;;;;;;;56.75;16.35;;;9.30;99.90;;;;;;4995231;28;20046;-74
2021/12/30 05:52:44;;;;;;;53.00;15.85;;;9.70;99.90;;;;;;4994902;28;20404;-74
2021/12/30 05:55:11;;;;;;;43.92;16.10;;;9.80;99.90;;;;;;4961198;28;20119;-75
2021/12/30 05:57:37;;;;;;;44.38;16.52;;;9.40;99.90;;;;;;4977487;28;20042;-75
2021/12/30 06:00:05;;;;;;;51.00;16.58;;;9.40;99.90;;;;;;4995067;28;20050;-74
2021/12/30 06:02:30;;;;;;;54.20;16.67;;;9.40;99.90;;;;;;4994806;28;20046;-76
2021/12/30 06:04:56;;;;;;;54.25;17.02;;;9.50;99.90;;;;;;4994692;28;20077;-75
2021/12/30 06:07:22;;;;;;;48.60;16.85;;;9.50;99.90;;;;;;4994992;28;20046;-74
2021/12/30 06:09:48;;;;;;;63.15;18.00;;;10.00;99.90;;;;;;4994994;28;20042;-74
2021/12/30 06:12:13;;;;;;;44.38;15.93;;;9.50;99.90;;;;;;4994451;28;20507;-76
2021/12/30 06:14:39;;;;;;;45.45;16.58;;;9.50;99.90;;;;;;4994721;28;20046;-77
2021/12/30 06:17:05;;;;;;;44.03;15.35;;;9.70;99.90;;;;;;4994675;28;20038;-75
2021/12/30 06:19:30;;;;;;;48.83;15.50;;;9.60;99.90;;;;;;4977065;28;20052;-74
2021/12/30 06:21:56;;;;;;;41.72;15.07;;;9.60;99.90;;;;;;4994600;28;20038;-76
2021/12/30 06:24:22;;;;;;;37.50;14.93;;;9.70;99.90;;;;;;4992820;28;20054;-77
2021/12/30 06:26:47;;;;;;;41.63;14.95;;;9.80;99.90;;;;;;4994460;28;20052;-75
2021/12/30 06:29:14;;;;;;;38.15;14.90;;;9.70;99.90;;;;;;4994525;28;20046;-76
2021/12/30 06:31:40;;;;;;;33.80;13.60;;;9.70;99.90;;;;;;4976816;28;20090;-74
2021/12/30 06:34:06;;;;;;;37.55;13.55;;;9.70;99.90;;;;;;4994307;28;20493;-76
2021/12/30 06:36:32;;;;;;;35.03;14.13;;;9.70;99.90;;;;;;4976725;28;20081;-75
2021/12/30 06:38:58;;;;;;;38.05;14.65;;;9.80;99.90;;;;;;4976961;28;20050;-74
2021/12/30 06:41:23;;;;;;;40.10;13.95;;;9.80;99.90;;;;;;4976994;28;20085;-75
2021/12/30 06:43:49;;;;;;;34.83;14.13;;;9.80;99.90;;;;;;4994423;28;20481;-76
2021/12/30 06:46:19;;;;;;;32.50;12.27;;;9.80;99.90;;;;;;4976796;28;20552;-72
2021/12/30 06:48:45;;;;;;;32.83;12.80;;;9.80;99.90;;;;;;4994005;28;20579;-75
2021/12/30 06:51:13;;;;;;;35.17;13.98;;;10.10;99.90;;;;;;4959670;28;20408;-76
2021/12/30 06:53:39;;;;;;;39.75;13.95;;;9.80;99.90;;;;;;4993995;28;20050;-76
2021/12/30 06:56:05;;;;;;;33.50;14.52;;;9.80;99.90;;;;;;4975754;28;20054;-74
2021/12/30 06:58:32;;;;;;;37.30;13.43;;;9.90;99.90;;;;;;4976358;28;20054;-77
2021/12/30 07:00:58;;;;;;;47.50;15.52;;;9.90;99.90;;;;;;4993877;28;20074;-75
2021/12/30 07:03:24;;;;;;;37.20;13.55;;;9.90;99.90;;;;;;4993289;28;20073;-75
2021/12/30 07:05:53;;;;;;;45.67;15.52;;;10.00;99.90;;;;;;4993218;28;20047;-72
2021/12/30 07:08:18;;;;;;;48.50;16.45;;;10.00;99.90;;;;;;4976241;28;20054;-74
2021/12/30 07:10:44;;;;;;;38.42;14.60;;;10.00;99.90;;;;;;4993616;28;20042;-75
2021/12/30 07:13:10;;;;;;;43.85;15.88;;;10.30;99.90;;;;;;4976429;28;20058;-75
2021/12/30 07:15:36;;;;;;;46.67;15.80;;;10.00;99.90;;;;;;4993632;28;20065;-74
2021/12/30 07:18:02;;;;;;;44.78;15.25;;;10.20;99.90;;;;;;4993537;28;20504;-73
2021/12/30 07:20:27;;;;;;;45.53;16.92;;;10.00;99.90;;;;;;4975897;28;20050;-74
2021/12/30 07:22:53;;;;;;;23.92;7.97;;;10.00;99.90;;;;;;4993297;28;20105;-73
2021/12/30 07:25:19;;;;;;;26.42;8.23;;;10.10;99.90;;;;;;4993650;28;20420;-73
2021/12/30 07:27:48;;;;;;;24.48;7.97;;;10.10;99.90;;;;;;4976136;28;20058;-73
2021/12/30 07:30:14;;;;;;;27.63;8.57;;;10.10;99.90;;;;;;4976135;28;20046;-73
2021/12/30 07:32:40;;;;;;;26.50;8.73;;;10.10;99.90;;;;;;4993326;28;20062;-76
2021/12/30 07:35:06;;;;;;;28.92;8.77;;;10.20;99.90;;;;;;4993539;28;20050;-73
2021/12/30 07:37:32;;;;;;;23.98;8.45;;;10.20;99.90;;;;;;4993351;28;20047;-74
2021/12/30 07:39:58;;;;;;;24.77;7.95;;;10.20;99.90;;;;;;4993312;28;20046;-74
2021/12/30 07:42:23;;;;;;;26.50;7.82;;;10.30;99.90;;;;;;4993176;28;20480;-74
2021/12/30 07:44:49;;;;;;;21.27;7.43;;;10.30;99.90;;;;;;4975979;28;20133;-76
2021/12/30 07:47:15;;;;;;;22.20;8.05;;;10.30;99.90;;;;;;4993206;28;20046;-74
2021/12/30 07:49:40;;;;;;;26.63;7.70;;;10.40;99.90;;;;;;4992518;28;20050;-76
2021/12/30 07:52:07;;;;;;;23.40;8.15;;;10.40;99.90;;;;;;4975214;28;20046;-74
2021/12/30 07:54:34;;;;;;;21.75;6.80;;;10.70;99.90;;;;;;4993260;28;20042;-73
2021/12/30 07:57:00;;;;;;;26.70;7.88;;;10.40;99.90;;;;;;4993101;28;20433;-77
2021/12/30 07:59:26;;;;;;;25.48;7.60;;;10.40;99.90;;;;;;4993160;28;20125;-73
2021/12/30 08:01:52;;;;;;;26.20;8.57;;;10.50;99.90;;;;;;4993039;28;20039;-73
2021/12/30 08:04:18;;;;;;;23.73;7.60;;;10.50;99.90;;;;;;4993310;28;20054;-76
2021/12/30 08:06:43;;;;;;;24.65;6.95;;;10.50;99.90;;;;;;4992670;28;20527;-76
2021/12/30 08:09:09;;;;;;;19.13;6.60;;;10.60;99.90;;;;;;4993208;28;20077;-74
2021/12/30 08:11:35;;;;;;;21.17;6.25;;;10.60;99.90;;;;;;4993264;28;20506;-75
2021/12/30 08:14:01;;;;;;;19.17;6.53;;;10.60;99.90;;;;;;4993191;28;20086;-76
2021/12/30 08:16:27;;;;;;;16.08;4.65;;;10.70;99.90;;;;;;4996028;28;20046;-74
2021/12/30 08:18:53;;;;;;;13.05;4.50;;;10.60;99.90;;;;;;4998304;28;20039;-75
2021/12/30 08:21:20;;;;;;;14.98;5.00;;;10.90;99.90;;;;;;4996635;28;20524;-85
2021/12/30 08:23:46;;;;;;;14.55;4.60;;;10.70;99.90;;;;;;4979595;28;20058;-85
2021/12/30 08:26:12;;;;;;;13.98;4.00;;;10.70;99.90;;;;;;4997038;28;20053;-79
2021/12/30 08:28:38;;;;;;;11.30;3.50;;;10.80;99.90;;;;;;4997330;28;20054;-77
2021/12/30 08:31:04;;;;;;;14.32;3.72;;;10.80;99.90;;;;;;4996658;28;20390;-78
2021/12/30 08:33:31;;;;;;;12.20;3.38;;;10.80;99.90;;;;;;4997180;28;20072;-85
2021/12/30 08:35:57;;;;;;;14.55;3.38;;;10.80;99.90;;;;;;4996740;28;20043;-82
2021/12/30 08:38:23;;;;;;;8.23;3.10;;;10.80;99.90;;;;;;4997630;28;20410;-86
2021/12/30 08:40:48;;;;;;;11.90;3.15;;;10.80;99.90;;;;;;5002007;28;20403;-86
2021/12/30 08:43:16;;;;;;;9.43;2.85;;;11.10;99.90;;;;;;5008132;28;20496;-74
2021/12/30 08:45:42;;;;;;;10.20;2.83;;;10.90;99.90;;;;;;5003257;28;20046;-78
2021/12/30 08:48:08;;;;;;;11.68;2.90;;;10.90;99.90;;;;;;5000158;28;20050;-75
2021/12/30 08:50:34;;;;;;;8.98;2.85;;;10.90;99.90;;;;;;4996540;28;20130;-74
2021/12/30 08:53:00;;;;;;;9.35;2.63;;;10.90;99.90;;;;;;4996234;28;20057;-75
2021/12/30 08:55:26;;;;;;;5.68;2.17;;;11.00;99.90;;;;;;4996261;28;20044;-74
2021/12/30 08:57:52;;;;;;;6.75;2.47;;;11.00;99.90;;;;;;4978757;28;20124;-76
2021/12/30 09:00:23;;;;;;;6.75;2.05;;;11.00;99.90;;;;;;4996357;28;20050;-73
2021/12/30 09:02:50;;;;;;;7.38;2.28;;;11.00;99.90;;;;;;4978583;28;20054;-75
2021/12/30 09:05:15;;;;;;;7.70;2.35;;;11.00;99.90;;;;;;4978698;28;20054;-74
2021/12/30 09:07:41;;;;;;;9.32;2.33;;;11.30;99.90;;;;;;4995864;28;20057;-73
2021/12/30 09:10:09;;;;;;;6.22;2.00;;;11.40;99.90;;;;;;4996106;28;20516;-73
2021/12/30 09:12:36;;;;;;;8.50;2.03;;;11.10;99.90;;;;;;4995824;28;20085;-74
2021/12/30 09:15:02;;;;;;;8.70;2.15;;;11.10;99.90;;;;;;4995829;28;20396;-75
2021/12/30 09:17:28;;;;;;;7.00;2.00;;;11.10;99.90;;;;;;4996022;28;20054;-72
2021/12/30 09:19:54;;;;;;;5.22;1.83;;;11.10;99.90;;;;;;4978290;28;20109;-73
2021/12/30 09:22:19;;;;;;;6.55;2.03;;;11.20;99.90;;;;;;4995631;28;20451;-75
2021/12/30 09:24:45;;;;;;;7.43;2.22;;;11.30;99.90;;;;;;4995766;28;20058;-74
2021/12/30 09:27:11;;;;;;;7.95;2.70;;;11.20;99.90;;;;;;4994650;28;20050;-74
2021/12/30 09:29:37;;;;;;;6.63;2.20;;;11.20;99.90;;;;;;4978221;28;20564;-74
2021/12/30 09:32:03;;;;;;;6.22;2.38;;;11.20;99.90;;;;;;4978528;28;20050;-75
2021/12/30 09:34:28;;;;;;;7.65;2.58;;;11.30;99.90;;;;;;4995515;28;20523;-74
2021/12/30 09:36:54;;;;;;;8.25;2.90;;;11.30;99.90;;;;;;4978132;28;20081;-75
2021/12/30 09:39:20;;;;;;;7.93;2.55;;;11.40;99.90;;;;;;4978466;28;20460;-73
2021/12/30 09:41:47;;;;;;;9.52;3.25;;;11.40;99.90;;;;;;4995259;28;20088;-74
2021/12/30 09:44:16;;;;;;;11.30;4.22;;;11.50;99.90;;;;;;4995432;28;20057;-76
2021/12/30 09:46:43;;;;;;;11.68;3.28;;;11.50;99.90;;;;;;4978688;28;20043;-76
2021/12/30 09:49:12;;;;;;;11.02;3.25;;;11.50;99.90;;;;;;4995689;28;20050;-79
2021/12/30 09:51:39;;;;;;;13.93;3.38;;;11.50;99.90;;;;;;4995149;28;20097;-78
2021/12/30 09:54:05;;;;;;;10.80;3.03;;;11.80;99.90;;;;;;4995465;28;20069;-75
2021/12/30 09:56:31;;;;;;;9.05;2.90;;;11.50;99.90;;;;;;4995464;28;20456;-84
2021/12/30 09:58:57;;;;;;;11.07;2.50;;;11.60;99.90;;;;;;4977617;28;20097;-79
2021/12/30 10:01:22;;;;;;;9.68;2.58;;;12.20;99.90;;;;;;4995672;28;20046;-84
2021/12/30 10:03:50;;;;;;;6.75;2.47;;;11.60;99.90;;;;;;4978480;28;20524;-81
2021/12/30 10:06:17;;;;;;;12.90;2.60;;;11.70;99.90;;;;;;4994866;28;20408;-77
2021/12/30 10:08:57;;;;;;;10.23;3.65;;;11.60;99.90;;;;;;4996425;28;20058;-75
2021/12/30 10:11:25;;;;;;;10.23;2.85;;;11.60;99.90;;;;;;4996326;28;20073;-76
2021/12/30 10:13:56;;;;;;;10.60;3.08;;;11.70;99.90;;;;;;4981490;28;20060;-75
2021/12/30 10:16:25;;;;;;;11.50;3.47;;;11.70;99.90;;;;;;4998890;28;20050;-74
2021/12/30 10:18:57;;;;;;;7.82;2.85;;;11.70;99.90;;;;;;4978235;28;20066;-76
2021/12/30 10:21:27;;;;;;;;;;;11.70;99.90;;;;;;4998511;28;20081;-73
2021/12/30 10:23:55;;;;;;;10.18;3.22;;;11.70;99.90;;;;;;5000822;28;19921;-74
2021/12/30 10:26:22;;;;;;;11.05;3.25;;;11.70;99.90;;;;;;4980736;28;20053;-75
2021/12/30 10:28:55;;;;;;;9.13;3.00;;;11.70;99.90;;;;;;4977135;28;20514;-77
2021/12/30 10:31:26;;;;;;;15.70;3.72;;;11.70;99.90;;;;;;4994632;28;20445;-75
2021/12/30 10:34:01;;;;;;;11.38;3.42;;;11.70;99.90;;;;;;4994802;28;20053;-74
2021/12/30 10:36:36;;;;;;;12.77;3.58;;;11.70;99.90;;;;;;4994269;28;20034;-74
2021/12/30 10:39:28;;;;;;;12.57;3.47;;;11.70;99.90;;;;;;4994639;28;20527;-75
2021/12/30 10:42:21;;;;;;;10.43;2.92;;;11.70;99.90;;;;;;4994167;28;20129;-75
2021/12/30 10:44:52;;;;;;;9.70;2.97;;;11.70;99.90;;;;;;4994191;28;20408;-74
2021/12/30 10:47:19;;;;;;;9.35;2.88;;;11.70;99.90;;;;;;4977124;28;20069;-75
2021/12/30 10:49:58;;;;;;;11.18;3.28;;;11.70;99.90;;;;;;4995008;28;20396;-75
2021/12/30 10:52:24;;;;;;;10.52;2.80;;;11.70;99.90;;;;;;4993896;28;20042;-75
2021/12/30 10:54:52;;;;;;;12.02;2.97;;;11.70;99.90;;;;;;4960453;28;20111;-77
2021/12/30 10:57:18;;;;;;;17.05;3.13;;;11.70;99.90;;;;;;4996840;28;20093;-74
2021/12/30 10:59:48;;;;;;;11.63;2.38;;;11.70;99.90;;;;;;4978230;28;20432;-74
2021/12/30 11:02:16;;;;;;;12.25;3.22;;;11.60;99.90;;;;;;4994112;28;20050;-72
2021/12/30 11:04:48;;;;;;;13.65;3.25;;;11.80;99.90;;;;;;4993975;28;20062;-75
2021/12/30 11:07:21;;;;;;;11.82;2.80;;;11.60;99.90;;;;;;4993564;28;20046;-76
2021/12/30 11:09:58;;;;;;;11.68;2.70;;;11.80;99.90;;;;;;4994114;28;20046;-74
2021/12/30 11:12:26;;;;;;;9.68;3.50;;;11.60;99.90;;;;;;4976649;28;20116;-74
2021/12/30 11:14:52;;;;;;;13.68;3.30;;;11.70;99.90;;;;;;4994009;28;20046;-73
2021/12/30 11:17:22;;;;;;;13.88;3.92;;;11.70;99.90;;;;;;4993662;28;20404;-74
2021/12/30 11:19:51;;;;;;;15.75;3.53;;;11.70;99.90;;;;;;4960017;28;20050;-74
2021/12/30 11:22:21;;;;;;;17.45;3.75;;;11.70;99.90;;;;;;4993800;28;20050;-74
2021/12/30 11:24:48;;;;;;;15.73;4.68;;;11.70;99.90;;;;;;4993648;28;20050;-75
2021/12/30 11:27:15;;;;;;;13.52;3.63;;;11.70;99.90;;;;;;4993617;28;20506;-74
2021/12/30 11:29:45;;;;;;;15.07;4.03;;;11.70;99.90;;;;;;4993487;28;20129;-77
2021/12/30 11:32:14;;;;;;;13.18;4.05;;;11.70;99.90;;;;;;4976066;28;20042;-76
2021/12/30 11:34:39;;;;;;;18.92;4.18;;;11.70;99.90;;;;;;4993064;28;20096;-72
2021/12/30 11:37:06;;;;;;;18.60;4.45;;;11.70;99.90;;;;;;4993518;28;20046;-76
2021/12/30 11:39:32;;;;;;;13.85;3.97;;;11.70;99.90;;;;;;4976248;28;20054;-75
2021/12/30 11:42:09;;;;;;;16.63;4.15;;;12.00;99.90;;;;;;4959250;28;20133;-77
2021/12/30 11:44:42;;;;;;;19.25;4.00;;;11.70;99.90;;;;;;4993161;28;20398;-77
2021/12/30 11:47:29;;;;;;;18.40;3.65;;;11.70;99.90;;;;;;4975835;28;20038;-77
2021/12/30 11:49:58;;;;;;;16.60;3.55;;;11.70;99.90;;;;;;4959385;28;20054;-77
2021/12/30 11:52:49;;;;;;;22.42;4.38;;;11.70;99.90;;;;;;4993340;28;20396;-75
2021/12/30 11:55:42;;;;;;;15.98;3.75;;;11.70;99.90;;;;;;4993042;28;20093;-77
2021/12/30 11:58:40;;;;;;;22.30;4.63;;;11.70;99.90;;;;;;4994881;28;20133;-74
2021/12/30 12:01:24;;;;;;;18.08;4.18;;;11.70;99.90;;;;;;4993111;28;20046;-75
2021/12/30 12:04:02;;;;;;;22.17;4.65;;;11.70;99.90;;;;;;4992756;28;20046;-75
2021/12/30 12:06:32;;;;;;;24.73;5.63;;;11.70;99.90;;;;;;4992898;28;20077;-77
2021/12/30 12:09:18;;;;;;;20.33;4.60;;;11.70;99.90;;;;;;4993212;28;20116;-78
2021/12/30 12:12:01;;;;;;;30.67;5.28;;;11.70;99.90;;;;;;4993047;28;20058;-76
2021/12/30 12:14:59;;;;;;;18.52;4.50;;;11.70;99.90;;;;;;4975657;28;20148;-77
2021/12/30 12:17:45;;;;;;;22.83;4.70;;;11.70;99.90;;;;;;4992504;28;20477;-76
2021/12/30 12:20:18;;;;;;;26.30;6.22;;;11.70;99.90;;;;;;4975522;28;20155;-76
2021/12/30 12:22:44;;;;;;;18.75;3.35;;;11.70;99.90;;;;;;4992546;28;20082;-77
2021/12/30 12:25:14;;;;;;;23.80;4.43;;;12.10;99.90;;;;;;4992845;28;20128;-77
2021/12/30 12:27:49;;;;;;;25.90;5.70;;;11.70;99.90;;;;;;4993067;28;20053;-75
2021/12/30 12:30:23;;;;;;;13.27;4.32;;;11.80;99.90;;;;;;4992715;28;20050;-76
2021/12/30 12:32:49;;;;;;;18.27;5.03;;;11.80;99.90;;;;;;4992900;28;20082;-76
2021/12/30 12:35:18;;;;;;;27.17;6.03;;;11.70;99.90;;;;;;4992862;28;20077;-81
2021/12/30 12:37:45;;;;;;;15.95;4.15;;;11.80;99.90;;;;;;4992727;28;20057;-78
2021/12/30 12:40:17;;;;;;;22.55;5.85;;;11.80;99.90;;;;;;4993037;28;20113;-76
2021/12/30 12:42:42;;;;;;;22.63;4.43;;;11.90;99.90;;;;;;4975730;28;20042;-84
2021/12/30 12:46:00;;;;;;;26.25;4.30;;;11.90;99.90;;;;;;4993148;28;20699;-84
2021/12/30 12:48:39;;;;;;;18.05;4.60;;;11.90;99.90;;;;;;4911727;29;20105;-84